createdAt,value
2023-05-09T00:01:12.320Z,4.80
2023-05-09T00:03:39.479Z,3.80
2023-05-09T00:06:06.971Z,3.90
2023-05-09T00:08:34.496Z,3.80
2023-05-09T00:11:01.748Z,4.20
2023-05-09T00:13:29.455Z,4.20
2023-05-09T00:15:56.840Z,4.10
2023-05-09T00:18:23.832Z,4.90
2023-05-09T00:20:50.720Z,4.00
2023-05-09T00:23:17.592Z,4.20
2023-05-09T00:25:44.507Z,4.10
2023-05-09T00:28:11.489Z,4.30
2023-05-09T00:30:38.658Z,4.70
2023-05-09T00:33:05.845Z,4.10
2023-05-09T00:35:34.404Z,4.30
2023-05-09T00:38:03.560Z,4.40
2023-05-09T00:40:31.091Z,4.30
2023-05-09T00:42:59.075Z,4.50
2023-05-09T00:45:26.679Z,4.70
2023-05-09T00:47:54.444Z,4.30
2023-05-09T00:50:23.640Z,4.60
2023-05-09T00:52:51.019Z,4.00
2023-05-09T00:55:20.596Z,3.80
2023-05-09T00:57:47.956Z,4.40
2023-05-09T01:00:15.084Z,4.00
2023-05-09T01:02:43.747Z,4.20
2023-05-09T01:05:11.307Z,3.90
2023-05-09T01:07:51.801Z,4.10
2023-05-09T01:10:50.673Z,3.70
2023-05-09T01:13:18.028Z,4.60
2023-05-09T01:15:45.093Z,4.90
2023-05-09T01:18:29.091Z,3.90
2023-05-09T01:20:57.698Z,4.00
2023-05-09T01:23:44.190Z,3.70
2023-05-09T01:26:36.122Z,3.80
2023-05-09T01:29:14.383Z,4.60
2023-05-09T01:31:42.871Z,4.20
2023-05-09T01:34:10.781Z,3.80
2023-05-09T01:36:38.126Z,4.20
2023-05-09T01:39:05.686Z,3.90
2023-05-09T01:41:37.845Z,4.30
2023-05-09T01:44:06.566Z,4.50
2023-05-09T01:46:33.523Z,4.50
2023-05-09T01:49:00.973Z,3.90
2023-05-09T01:51:27.996Z,3.90
2023-05-09T01:53:55.134Z,3.70
2023-05-09T01:56:22.614Z,4.00
2023-05-09T01:58:50.122Z,4.00
2023-05-09T02:01:17.493Z,3.70
2023-05-09T02:03:45.138Z,4.20
2023-05-09T02:06:12.046Z,3.80
2023-05-09T02:08:40.826Z,4.00
2023-05-09T02:11:07.692Z,3.90
2023-05-09T02:13:37.859Z,3.90
2023-05-09T02:16:07.272Z,3.80
2023-05-09T02:18:38.055Z,3.90
2023-05-09T02:21:05.769Z,4.20
2023-05-09T02:23:32.682Z,3.70
2023-05-09T02:26:00.764Z,4.30
2023-05-09T02:28:27.807Z,4.00
2023-05-09T02:30:55.070Z,4.10
2023-05-09T02:33:23.684Z,3.90
2023-05-09T02:35:50.588Z,4.20
2023-05-09T02:38:18.814Z,3.80
2023-05-09T02:40:46.350Z,3.80
2023-05-09T02:43:14.785Z,3.90
2023-05-09T02:45:41.793Z,4.00
2023-05-09T02:48:09.360Z,3.80
2023-05-09T02:50:41.395Z,4.10
2023-05-09T02:53:09.285Z,3.20
2023-05-09T02:55:36.347Z,3.80
2023-05-09T02:58:13.319Z,4.00
2023-05-09T03:00:42.238Z,3.90
2023-05-09T03:03:09.646Z,3.90
2023-05-09T03:05:36.663Z,4.60
2023-05-09T03:08:04.701Z,3.80
2023-05-09T03:10:33.786Z,4.50
2023-05-09T03:13:01.003Z,4.80
2023-05-09T03:15:28.530Z,4.90
2023-05-09T03:17:55.661Z,4.90
2023-05-09T03:20:22.649Z,4.60
2023-05-09T03:22:49.740Z,4.50
2023-05-09T03:25:16.987Z,3.90
2023-05-09T03:27:44.577Z,3.30
2023-05-09T03:30:14.018Z,3.70
2023-05-09T03:32:43.804Z,3.70
2023-05-09T03:35:10.832Z,3.60
2023-05-09T03:37:39.415Z,3.60
2023-05-09T03:40:07.659Z,3.40
2023-05-09T03:42:41.407Z,3.80
2023-05-09T03:45:09.010Z,3.10
2023-05-09T03:47:36.945Z,3.80
2023-05-09T03:50:05.636Z,4.20
2023-05-09T03:52:35.725Z,3.80
2023-05-09T03:55:03.585Z,3.30
2023-05-09T03:57:34.709Z,4.00
2023-05-09T04:00:04.478Z,4.20
2023-05-09T04:02:41.952Z,4.20
2023-05-09T04:05:13.626Z,3.40
2023-05-09T04:07:40.999Z,3.50
2023-05-09T04:10:09.049Z,4.40
2023-05-09T04:12:36.625Z,3.60
2023-05-09T04:15:03.845Z,3.70
2023-05-09T04:17:31.804Z,3.80
2023-05-09T04:19:58.730Z,3.90
2023-05-09T04:22:25.989Z,3.30
2023-05-09T04:24:53.304Z,4.30
2023-05-09T04:27:20.545Z,4.20
2023-05-09T04:29:48.833Z,3.70
2023-05-09T04:32:15.806Z,3.90
2023-05-09T04:34:45.642Z,3.90
2023-05-09T04:37:16.728Z,3.80
2023-05-09T04:39:43.755Z,3.80
2023-05-09T04:42:19.581Z,3.90
2023-05-09T04:44:47.617Z,3.10
2023-05-09T04:47:16.023Z,3.20
2023-05-09T04:49:51.004Z,3.30
2023-05-09T04:52:18.618Z,4.20
2023-05-09T04:54:45.531Z,3.50
2023-05-09T04:57:18.018Z,3.30
2023-05-09T04:59:48.137Z,3.10
2023-05-09T05:02:15.590Z,3.20
2023-05-09T05:04:43.158Z,2.70
2023-05-09T05:07:10.256Z,3.10
2023-05-09T05:09:38.349Z,3.30
2023-05-09T05:12:09.126Z,3.10
2023-05-09T05:14:36.851Z,3.20
2023-05-09T05:17:04.755Z,3.40
2023-05-09T05:19:32.623Z,3.30
2023-05-09T05:22:00.157Z,2.90
2023-05-09T05:24:29.430Z,2.70
2023-05-09T05:26:56.377Z,2.90
2023-05-09T05:29:23.504Z,3.30
2023-05-09T05:31:50.393Z,3.10
2023-05-09T05:34:17.760Z,3.20
2023-05-09T05:36:47.504Z,2.50
2023-05-09T05:39:14.396Z,2.80
2023-05-09T05:41:43.331Z,3.50
2023-05-09T05:44:10.484Z,2.90
2023-05-09T05:46:38.571Z,2.80
2023-05-09T05:49:05.864Z,3.30
2023-05-09T05:51:36.367Z,3.20
2023-05-09T05:54:03.896Z,3.60
2023-05-09T05:56:31.450Z,2.80
2023-05-09T05:58:58.560Z,3.20
2023-05-09T06:01:25.857Z,2.90
2023-05-09T06:03:54.386Z,2.70
2023-05-09T06:06:21.832Z,2.40
2023-05-09T06:08:51.440Z,2.60
2023-05-09T06:11:18.516Z,2.70
2023-05-09T06:13:46.166Z,2.20
2023-05-09T06:16:19.540Z,2.50
2023-05-09T06:18:53.314Z,2.70
2023-05-09T06:24:19.931Z,2.20
2023-05-09T06:26:57.068Z,2.60
2023-05-09T06:29:25.211Z,2.40
2023-05-09T06:31:52.969Z,2.20
2023-05-09T06:34:22.881Z,2.40
2023-05-09T06:36:50.412Z,2.30
2023-05-09T06:39:18.129Z,2.10
2023-05-09T06:41:46.301Z,2.30
2023-05-09T06:44:18.750Z,2.00
2023-05-09T06:46:45.972Z,1.90
2023-05-09T06:49:14.040Z,2.50
2023-05-09T06:51:41.530Z,1.90
2023-05-09T06:54:08.378Z,2.20
2023-05-09T06:56:35.882Z,2.00
2023-05-09T06:59:07.765Z,2.00
2023-05-09T07:01:35.261Z,2.10
2023-05-09T07:04:02.177Z,1.90
2023-05-09T07:06:29.877Z,2.00
2023-05-09T07:08:56.742Z,1.80
2023-05-09T07:11:23.729Z,1.70
2023-05-09T07:13:52.108Z,2.00
2023-05-09T07:16:22.519Z,1.60
2023-05-09T07:18:49.428Z,1.60
2023-05-09T07:21:16.498Z,1.70
2023-05-09T07:23:49.836Z,1.60
2023-05-09T07:26:16.873Z,1.70
2023-05-09T07:28:44.149Z,1.50
2023-05-09T07:31:11.137Z,1.60
2023-05-09T07:33:38.819Z,1.30
2023-05-09T07:36:05.827Z,1.60
2023-05-09T07:38:33.491Z,1.80
2023-05-09T07:41:00.728Z,1.70
2023-05-09T07:43:27.534Z,2.00
2023-05-09T07:45:54.363Z,1.60
2023-05-09T07:48:21.181Z,2.30
2023-05-09T07:50:48.852Z,1.70
2023-05-09T07:53:15.665Z,1.40
2023-05-09T07:55:45.489Z,1.70
2023-05-09T07:58:12.729Z,1.70
2023-05-09T08:00:40.237Z,1.30
2023-05-09T08:03:07.340Z,1.60
2023-05-09T08:05:35.051Z,1.60
2023-05-09T08:08:02.073Z,1.50
2023-05-09T08:10:33.420Z,1.60
2023-05-09T08:13:03.138Z,1.60
2023-05-09T08:15:31.400Z,1.80
2023-05-09T08:17:59.583Z,1.60
2023-05-09T08:20:26.489Z,1.60
2023-05-09T08:22:53.705Z,1.70
2023-05-09T08:25:20.621Z,1.60
2023-05-09T08:27:47.497Z,1.60
2023-05-09T08:30:14.810Z,1.70
2023-05-09T08:32:42.548Z,1.70
2023-05-09T08:35:09.547Z,1.70
2023-05-09T08:37:37.034Z,1.50
2023-05-09T08:40:07.265Z,1.70
2023-05-09T08:42:39.092Z,2.10
2023-05-09T08:45:09.339Z,1.90
2023-05-09T08:47:37.077Z,1.70
2023-05-09T08:50:04.601Z,1.60
2023-05-09T08:52:33.042Z,1.60
2023-05-09T08:55:04.467Z,1.80
2023-05-09T08:59:59.065Z,1.50
2023-05-09T09:02:26.626Z,2.00
2023-05-09T09:04:54.219Z,1.50
2023-05-09T09:07:21.077Z,1.40
2023-05-09T09:09:48.798Z,1.80
2023-05-09T09:12:17.422Z,1.50
2023-05-09T09:14:51.033Z,1.60
2023-05-09T09:17:19.189Z,1.40
2023-05-09T09:19:51.667Z,1.40
2023-05-09T09:22:18.733Z,1.60
2023-05-09T09:24:45.617Z,1.60
2023-05-09T09:27:12.382Z,1.40
2023-05-09T09:29:40.603Z,1.80
2023-05-09T09:32:07.732Z,1.60
2023-05-09T09:34:34.545Z,1.50
2023-05-09T09:37:01.632Z,1.70
2023-05-09T09:39:30.697Z,1.70
2023-05-09T09:41:57.723Z,1.60
2023-05-09T09:44:24.693Z,1.50
2023-05-09T09:46:53.033Z,1.40
2023-05-09T09:49:24.648Z,1.40
2023-05-09T09:51:56.067Z,1.90
2023-05-09T09:54:22.894Z,1.60
2023-05-09T09:56:51.664Z,1.50
2023-05-09T09:59:24.310Z,1.70
2023-05-09T10:02:08.361Z,1.60
2023-05-09T10:04:36.888Z,1.70
2023-05-09T10:07:05.641Z,1.60
2023-05-09T10:09:33.611Z,1.50
2023-05-09T10:12:06.783Z,1.70
2023-05-09T10:14:37.808Z,1.50
2023-05-09T10:17:05.633Z,1.90
2023-05-09T10:19:32.764Z,2.30
2023-05-09T10:22:04.927Z,2.00
2023-05-09T10:24:38.181Z,1.70
2023-05-09T10:27:08.894Z,1.50
2023-05-09T10:29:44.014Z,1.80
2023-05-09T10:32:31.740Z,1.60
2023-05-09T10:35:01.972Z,1.50
2023-05-09T10:37:30.553Z,2.20
2023-05-09T10:40:00.951Z,1.60
2023-05-09T10:42:27.987Z,1.80
2023-05-09T10:44:55.019Z,1.70
2023-05-09T10:47:27.615Z,1.50
2023-05-09T10:49:55.074Z,1.40
2023-05-09T10:52:26.580Z,1.50
2023-05-09T10:55:03.112Z,1.60
2023-05-09T10:57:31.940Z,1.80
2023-05-09T10:59:59.890Z,1.90
2023-05-09T11:02:31.557Z,1.50
2023-05-09T11:05:22.314Z,1.70
2023-05-09T11:08:49.370Z,1.70
2023-05-09T11:11:25.064Z,1.80
2023-05-09T11:13:56.983Z,1.40
2023-05-09T11:16:24.028Z,1.60
2023-05-09T11:18:53.461Z,1.40
2023-05-09T11:21:20.511Z,1.90
2023-05-09T11:23:49.886Z,1.90
2023-05-09T11:26:17.119Z,1.60
2023-05-09T11:28:53.576Z,2.20
2023-05-09T11:31:20.451Z,1.90
2023-05-09T11:33:57.787Z,1.70
2023-05-09T11:36:29.771Z,1.70
2023-05-09T11:39:07.926Z,2.10
2023-05-09T11:41:46.081Z,1.70
2023-05-09T11:44:19.680Z,1.50
2023-05-09T11:46:47.612Z,1.60
2023-05-09T11:49:14.667Z,1.60
2023-05-09T11:51:42.080Z,1.80
2023-05-09T11:54:09.987Z,1.80
2023-05-09T11:56:38.743Z,1.80
2023-05-09T11:59:10.301Z,2.00
2023-05-09T12:01:37.341Z,1.60
2023-05-09T12:04:06.889Z,1.60
2023-05-09T12:06:33.820Z,1.80
2023-05-09T12:09:00.681Z,1.70
2023-05-09T12:11:29.394Z,1.50
2023-05-09T12:13:57.258Z,2.90
2023-05-09T12:16:24.109Z,1.80
2023-05-09T12:18:52.113Z,1.50
2023-05-09T12:21:19.515Z,1.60
2023-05-09T12:23:48.958Z,1.60
2023-05-09T12:26:18.091Z,1.60
2023-05-09T12:28:45.249Z,1.80
2023-05-09T12:31:12.466Z,1.80
2023-05-09T12:33:39.512Z,1.90
2023-05-09T12:36:12.253Z,1.70
2023-05-09T12:38:39.172Z,1.80
2023-05-09T12:41:10.696Z,1.70
2023-05-09T12:43:48.982Z,1.90
2023-05-09T12:46:19.601Z,1.90
2023-05-09T12:48:49.373Z,1.60
2023-05-09T12:51:23.031Z,1.90
2023-05-09T12:53:49.856Z,1.80
2023-05-09T12:56:18.668Z,1.80
2023-05-09T12:58:50.860Z,1.60
2023-05-09T13:01:19.180Z,1.80
2023-05-09T13:03:54.067Z,1.60
2023-05-09T13:06:21.658Z,1.60
2023-05-09T13:08:58.534Z,1.50
2023-05-09T13:11:25.520Z,1.60
2023-05-09T13:13:55.271Z,1.60
2023-05-09T13:16:22.167Z,1.60
2023-05-09T13:18:50.188Z,1.60
2023-05-09T13:21:21.886Z,1.90
2023-05-09T13:23:51.613Z,1.70
2023-05-09T13:26:18.732Z,1.70
2023-05-09T13:28:48.228Z,1.40
2023-05-09T13:31:15.252Z,1.40
2023-05-09T13:33:42.213Z,1.80
2023-05-09T13:36:09.076Z,1.60
2023-05-09T13:38:39.948Z,1.70
2023-05-09T13:41:06.917Z,1.50
2023-05-09T13:43:37.752Z,1.60
2023-05-09T13:46:05.725Z,1.70
2023-05-09T13:48:33.625Z,1.60
2023-05-09T13:51:00.905Z,1.50
2023-05-09T13:53:27.892Z,1.40
2023-05-09T13:55:54.804Z,1.60
2023-05-09T13:58:22.160Z,1.50
2023-05-09T14:00:49.169Z,1.50
2023-05-09T14:03:16.511Z,1.30
2023-05-09T14:05:43.399Z,1.30
2023-05-09T14:08:10.750Z,1.40
2023-05-09T14:10:41.197Z,1.40
2023-05-09T14:13:11.090Z,1.40
2023-05-09T14:15:38.290Z,1.60
2023-05-09T14:18:08.423Z,1.90
2023-05-09T14:20:44.336Z,1.60
2023-05-09T14:23:15.711Z,1.60
2023-05-09T14:25:51.547Z,1.60
2023-05-09T14:28:39.063Z,1.50
2023-05-09T14:31:07.015Z,1.50
2023-05-09T14:33:35.608Z,1.70
2023-05-09T14:36:03.705Z,1.50
2023-05-09T14:38:32.428Z,1.60
2023-05-09T14:40:59.293Z,1.40
2023-05-09T14:43:26.322Z,1.40
2023-05-09T14:45:54.829Z,1.50
2023-05-09T14:48:21.641Z,1.70
2023-05-09T14:50:49.496Z,1.50
2023-05-09T14:53:16.370Z,1.20
2023-05-09T14:55:46.691Z,1.40
2023-05-09T14:58:13.883Z,1.80
2023-05-09T15:00:41.356Z,1.80
2023-05-09T15:03:08.195Z,1.90
2023-05-09T15:05:36.796Z,2.10
2023-05-09T15:08:03.804Z,2.10
2023-05-09T15:10:32.451Z,1.90
2023-05-09T15:13:00.041Z,2.00
2023-05-09T15:15:27.163Z,2.00
2023-05-09T15:17:54.255Z,3.00
2023-05-09T15:20:21.629Z,2.50
2023-05-09T15:22:49.244Z,2.20
2023-05-09T15:25:17.038Z,1.90
2023-05-09T15:27:44.083Z,2.10
2023-05-09T15:30:11.757Z,1.80
2023-05-09T15:32:40.141Z,1.70
2023-05-09T15:35:07.962Z,1.60
2023-05-09T15:37:37.365Z,2.20
2023-05-09T15:40:04.719Z,1.80
2023-05-09T15:42:34.797Z,1.90
2023-05-09T15:45:03.150Z,2.10
2023-05-09T15:47:30.865Z,2.30
2023-05-09T15:50:01.453Z,2.00
2023-05-09T15:52:28.864Z,2.00
2023-05-09T15:54:56.883Z,1.70
2023-05-09T15:57:24.558Z,1.70
2023-05-09T15:59:54.668Z,1.90
2023-05-09T16:02:22.559Z,1.50
2023-05-09T16:04:49.426Z,1.90
2023-05-09T16:07:19.006Z,2.30
2023-05-09T16:09:46.126Z,2.30
2023-05-09T16:12:13.460Z,2.40
2023-05-09T16:14:40.316Z,2.20
2023-05-09T16:17:09.212Z,2.50
2023-05-09T16:19:36.356Z,2.90
2023-05-09T16:22:03.284Z,2.60
2023-05-09T16:24:31.412Z,2.10
2023-05-09T16:26:58.255Z,2.60
2023-05-09T16:29:26.910Z,2.90
2023-05-09T16:31:54.355Z,3.00
2023-05-09T16:34:21.369Z,3.50
2023-05-09T16:36:48.947Z,3.20
2023-05-09T16:39:17.854Z,3.70
2023-05-09T16:41:44.863Z,3.00
2023-05-09T16:44:13.015Z,3.10
2023-05-09T16:46:41.788Z,3.10
2023-05-09T16:49:15.829Z,2.90
2023-05-09T16:51:43.833Z,2.80
2023-05-09T16:54:11.618Z,2.70
2023-05-09T16:56:38.733Z,2.50
2023-05-09T16:59:05.529Z,2.60
2023-05-09T17:01:32.712Z,2.50
2023-05-09T17:04:01.432Z,2.70
2023-05-09T17:06:29.193Z,2.60
2023-05-09T17:08:57.196Z,3.30
2023-05-09T17:11:24.846Z,3.60
2023-05-09T17:13:51.858Z,3.60
2023-05-09T17:16:18.886Z,3.10
2023-05-09T17:18:47.404Z,2.90
2023-05-09T17:21:15.325Z,2.90
2023-05-09T17:23:42.308Z,2.50
2023-05-09T17:26:09.147Z,2.70
2023-05-09T17:28:36.370Z,2.80
2023-05-09T17:31:03.730Z,2.80
2023-05-09T17:33:31.027Z,2.80
2023-05-09T17:35:59.692Z,2.70
2023-05-09T17:38:26.798Z,2.80
2023-05-09T17:40:53.666Z,3.10
2023-05-09T17:43:21.788Z,3.40
2023-05-09T17:45:48.741Z,3.50
2023-05-09T17:48:16.199Z,3.00
2023-05-09T17:50:43.543Z,3.10
2023-05-09T17:53:10.784Z,4.60
2023-05-09T17:55:37.655Z,6.40
2023-05-09T17:58:04.689Z,5.40
2023-05-09T18:00:31.940Z,4.20
2023-05-09T18:03:00.951Z,3.70
2023-05-09T18:05:28.086Z,2.90
2023-05-09T18:07:56.239Z,4.00
2023-05-09T18:10:23.074Z,4.40
2023-05-09T18:12:51.361Z,4.20
2023-05-09T18:15:18.254Z,4.60
2023-05-09T18:17:47.795Z,4.30
2023-05-09T18:20:14.848Z,4.90
2023-05-09T18:22:42.025Z,4.20
2023-05-09T18:25:11.558Z,4.10
2023-05-09T18:27:38.813Z,4.10
2023-05-09T18:30:07.472Z,4.40
2023-05-09T18:32:36.672Z,3.90
2023-05-09T18:35:03.767Z,3.70
2023-05-09T18:37:31.127Z,4.00
2023-05-09T18:39:57.947Z,4.30
2023-05-09T18:42:24.804Z,3.80
2023-05-09T18:44:53.945Z,3.80
2023-05-09T18:47:22.687Z,4.70
2023-05-09T18:49:51.168Z,4.50
2023-05-09T18:52:20.390Z,5.20
2023-05-09T18:54:50.513Z,5.90
2023-05-09T18:57:19.377Z,4.90
2023-05-09T18:59:46.787Z,4.60
2023-05-09T19:02:20.590Z,4.40
2023-05-09T19:04:50.025Z,4.60
2023-05-09T19:07:19.949Z,4.10
2023-05-09T19:09:47.740Z,4.10
2023-05-09T19:12:17.138Z,3.90
2023-05-09T19:14:44.237Z,4.70
2023-05-09T19:17:11.133Z,5.10
2023-05-09T19:19:39.288Z,5.30
2023-05-09T19:22:06.426Z,5.00
2023-05-09T19:24:33.704Z,4.30
2023-05-09T19:27:00.464Z,4.10
2023-05-09T19:29:28.198Z,4.10
2023-05-09T19:31:56.199Z,4.50
2023-05-09T19:37:25.706Z,4.20
2023-05-09T19:39:53.156Z,4.60
2023-05-09T19:42:21.702Z,4.50
2023-05-09T19:44:51.841Z,4.40
2023-05-09T19:47:19.467Z,4.70
2023-05-09T19:49:51.152Z,4.30
2023-05-09T19:52:23.482Z,4.10
2023-05-09T19:54:52.186Z,4.10
2023-05-09T19:57:33.090Z,3.60
2023-05-09T20:00:00.741Z,3.70
2023-05-09T20:02:33.107Z,3.50
2023-05-09T20:05:00.101Z,4.00
2023-05-09T20:07:29.131Z,3.70
2023-05-09T20:09:55.851Z,4.10
2023-05-09T20:12:22.707Z,3.90
2023-05-09T20:14:49.477Z,4.40
2023-05-09T20:17:16.848Z,4.90
2023-05-09T20:19:43.694Z,4.70
2023-05-09T20:22:11.015Z,4.60
2023-05-09T20:24:37.894Z,4.40
2023-05-09T20:27:07.509Z,5.20
2023-05-09T20:29:48.959Z,4.20
2023-05-09T20:32:16.573Z,4.80
2023-05-09T20:34:43.996Z,4.90
2023-05-09T20:37:11.612Z,4.40
2023-05-09T20:39:38.644Z,4.70
2023-05-09T20:42:06.322Z,4.10
2023-05-09T20:44:33.565Z,5.00
2023-05-09T20:47:03.554Z,5.20
2023-05-09T20:49:30.953Z,4.60
2023-05-09T20:51:58.053Z,4.50
2023-05-09T20:54:25.740Z,4.80
2023-05-09T20:56:52.784Z,5.00
2023-05-09T20:59:19.893Z,5.10
2023-05-09T21:01:49.051Z,5.40
2023-05-09T21:04:16.409Z,5.70
2023-05-09T21:06:43.426Z,5.70
2023-05-09T21:09:11.650Z,5.20
2023-05-09T21:11:41.507Z,5.60
2023-05-09T21:14:09.166Z,5.50
2023-05-09T21:16:36.941Z,6.00
2023-05-09T21:19:04.890Z,5.50
2023-05-09T21:21:32.690Z,5.70
2023-05-09T21:24:02.652Z,6.20
2023-05-09T21:26:30.036Z,5.60
2023-05-09T21:28:56.893Z,6.20
2023-05-09T21:31:23.674Z,6.20
2023-05-09T21:33:51.568Z,6.50
2023-05-09T21:36:18.521Z,6.60
2023-05-09T21:38:45.299Z,6.20
2023-05-09T21:41:12.345Z,6.20
2023-05-09T21:43:39.100Z,6.20
2023-05-09T21:46:05.871Z,5.60
2023-05-09T21:48:33.279Z,6.80
2023-05-09T21:51:01.985Z,6.20
2023-05-09T21:53:29.224Z,6.60
2023-05-09T21:55:58.701Z,6.40
2023-05-09T21:58:25.483Z,6.60
2023-05-09T22:00:52.816Z,5.90
2023-05-09T22:03:19.642Z,5.70
2023-05-09T22:05:46.480Z,6.10
2023-05-09T22:08:15.333Z,5.70
2023-05-09T22:10:42.355Z,5.70
2023-05-09T22:13:09.420Z,5.70
2023-05-09T22:15:36.212Z,5.70
2023-05-09T22:18:03.152Z,5.80
2023-05-09T22:20:30.148Z,5.80
2023-05-09T22:22:56.868Z,5.60
2023-05-09T22:25:23.654Z,5.60
2023-05-09T22:27:50.534Z,5.20
2023-05-09T22:30:17.519Z,4.50
2023-05-09T22:32:44.647Z,5.70
2023-05-09T22:35:12.010Z,5.10
2023-05-09T22:37:46.051Z,4.90
2023-05-09T22:40:14.530Z,5.30
2023-05-09T22:42:41.573Z,5.20
2023-05-09T22:45:08.658Z,5.00
2023-05-09T22:47:37.139Z,4.90
2023-05-09T22:50:04.196Z,5.00
2023-05-09T22:52:31.682Z,4.80
2023-05-09T22:54:58.444Z,4.50
2023-05-09T22:57:25.617Z,4.60
2023-05-09T22:59:53.295Z,4.30
2023-05-09T23:02:20.703Z,4.60
2023-05-09T23:04:47.582Z,4.30
2023-05-09T23:07:14.705Z,4.10
2023-05-09T23:09:41.646Z,4.30
2023-05-09T23:12:10.030Z,4.40
2023-05-09T23:14:36.836Z,4.80
2023-05-09T23:17:03.646Z,5.20
2023-05-09T23:19:30.538Z,4.90
2023-05-09T23:21:58.945Z,5.20
2023-05-09T23:24:25.769Z,5.10
2023-05-09T23:26:53.404Z,5.00
2023-05-09T23:29:20.239Z,4.90
2023-05-09T23:31:47.709Z,4.50
2023-05-09T23:34:14.614Z,4.90
2023-05-09T23:36:41.402Z,4.50
2023-05-09T23:39:08.203Z,4.50
2023-05-09T23:41:35.335Z,4.30
2023-05-09T23:44:02.905Z,4.20
2023-05-09T23:46:29.960Z,4.70
2023-05-09T23:48:56.794Z,4.30
2023-05-09T23:51:23.751Z,3.80
2023-05-09T23:53:50.686Z,4.40
2023-05-09T23:56:17.486Z,4.20
2023-05-09T23:58:44.282Z,4.40
